createdAt,value
2023-03-26T00:01:46.931Z,82.91
2023-03-26T00:04:19.802Z,83.31
2023-03-26T00:06:48.968Z,83.36
2023-03-26T00:09:18.113Z,81.98
2023-03-26T00:11:46.531Z,81.20
2023-03-26T00:14:17.940Z,80.83
2023-03-26T00:16:47.744Z,81.25
2023-03-26T00:19:17.159Z,80.22
2023-03-26T00:21:45.085Z,80.09
2023-03-26T00:24:16.301Z,79.28
2023-03-26T00:26:48.568Z,78.20
2023-03-26T00:29:17.017Z,78.59
2023-03-26T00:31:46.384Z,78.71
2023-03-26T00:34:18.654Z,79.13
2023-03-26T00:36:48.034Z,79.03
2023-03-26T00:39:17.855Z,78.33
2023-03-26T00:41:45.902Z,78.96
2023-03-26T00:44:13.812Z,78.16
2023-03-26T00:46:42.871Z,77.11
2023-03-26T00:49:14.770Z,76.62
2023-03-26T00:51:44.388Z,76.46
2023-03-26T00:54:12.770Z,76.79
2023-03-26T00:56:40.847Z,77.73
2023-03-26T00:59:09.300Z,77.09
2023-03-26T01:04:28.330Z,75.77
2023-03-26T01:07:00.046Z,76.24
2023-03-26T01:09:34.569Z,76.33
2023-03-26T01:12:06.766Z,77.40
2023-03-26T01:14:34.816Z,77.35
2023-03-26T01:17:04.664Z,77.19
2023-03-26T01:19:38.529Z,76.88
2023-03-26T01:22:11.283Z,75.46
2023-03-26T01:24:41.313Z,77.40
2023-03-26T01:27:19.993Z,77.69
2023-03-26T01:29:54.315Z,77.34
2023-03-26T01:32:38.900Z,78.28
2023-03-26T01:35:22.206Z,76.54
2023-03-26T01:38:10.709Z,76.39
2023-03-26T01:40:44.087Z,75.19
2023-03-26T01:43:18.873Z,75.69
2023-03-26T01:45:48.953Z,76.06
2023-03-26T01:48:17.175Z,75.83
2023-03-26T01:50:45.210Z,76.92
2023-03-26T01:53:14.781Z,77.64
2023-03-26T01:55:56.362Z,78.33
2023-03-26T01:58:32.501Z,78.19
2023-03-26T02:01:12.750Z,77.96
2023-03-26T02:03:48.038Z,77.23
2023-03-26T02:06:21.457Z,77.01
2023-03-26T02:08:54.054Z,77.15
2023-03-26T02:11:23.624Z,77.13
2023-03-26T02:13:52.593Z,77.33
2023-03-26T02:16:21.636Z,78.03
2023-03-26T02:18:55.785Z,78.31
2023-03-26T02:21:26.183Z,77.07
2023-03-26T02:23:58.168Z,77.53
2023-03-26T02:26:27.525Z,78.44
2023-03-26T02:28:55.401Z,78.49
2023-03-26T02:31:26.438Z,79.75
2023-03-26T02:33:55.613Z,79.94
2023-03-26T02:36:27.516Z,79.14
2023-03-26T02:38:58.073Z,80.82
2023-03-26T02:41:27.579Z,81.57
2023-03-26T02:43:55.472Z,82.32
2023-03-26T02:46:23.431Z,82.94
2023-03-26T02:48:51.380Z,82.17
2023-03-26T02:51:19.701Z,81.12
2023-03-26T02:53:47.584Z,80.02
2023-03-26T02:56:15.610Z,79.95
2023-03-26T02:58:44.917Z,79.82
2023-03-26T03:01:13.254Z,80.50
2023-03-26T03:03:41.607Z,80.31
2023-03-26T03:06:10.270Z,81.39
2023-03-26T03:08:38.160Z,81.92
2023-03-26T03:11:10.882Z,81.19
2023-03-26T03:13:39.193Z,86.73
2023-03-26T03:16:09.480Z,86.16
2023-03-26T03:18:37.967Z,85.75
2023-03-26T03:21:07.193Z,84.84
2023-03-26T03:23:35.481Z,85.02
2023-03-26T03:26:03.461Z,85.33
2023-03-26T03:28:31.664Z,84.99
2023-03-26T03:30:59.630Z,85.13
2023-03-26T03:33:30.399Z,85.45
2023-03-26T03:35:59.496Z,85.58
2023-03-26T03:38:27.424Z,85.57
2023-03-26T03:40:55.596Z,87.29
2023-03-26T03:43:23.511Z,85.82
2023-03-26T03:45:51.503Z,85.46
2023-03-26T03:48:19.556Z,85.28
2023-03-26T03:50:48.848Z,85.58
2023-03-26T03:53:18.508Z,83.76
2023-03-26T03:55:53.136Z,81.07
2023-03-26T03:58:22.476Z,78.41
2023-03-26T04:00:50.709Z,75.57
2023-03-26T04:03:19.970Z,74.94
2023-03-26T04:06:07.004Z,74.77
2023-03-26T04:08:35.159Z,76.09
2023-03-26T04:11:03.110Z,75.69
2023-03-26T04:13:31.313Z,76.19
2023-03-26T04:15:59.521Z,76.86
2023-03-26T04:18:27.895Z,76.70
2023-03-26T04:20:55.865Z,75.88
2023-03-26T04:23:26.768Z,75.55
2023-03-26T04:25:56.058Z,75.18
2023-03-26T04:28:30.509Z,74.96
2023-03-26T04:31:02.097Z,74.99
2023-03-26T04:33:31.335Z,75.20
2023-03-26T04:36:02.792Z,77.85
2023-03-26T04:38:35.681Z,78.08
2023-03-26T04:41:04.609Z,77.22
2023-03-26T04:43:35.558Z,78.41
2023-03-26T04:46:04.661Z,78.66
2023-03-26T04:48:32.805Z,80.11
2023-03-26T04:51:01.473Z,80.49
2023-03-26T04:53:29.459Z,81.49
2023-03-26T04:56:02.155Z,80.85
2023-03-26T04:58:32.979Z,80.98
2023-03-26T05:01:10.271Z,82.12
2023-03-26T05:03:39.281Z,82.45
2023-03-26T05:06:07.912Z,82.33
2023-03-26T05:08:35.820Z,83.07
2023-03-26T05:11:07.502Z,84.51
2023-03-26T05:13:35.407Z,86.36
2023-03-26T05:16:03.320Z,84.98
2023-03-26T05:18:32.327Z,86.18
2023-03-26T05:21:00.395Z,86.49
2023-03-26T05:23:28.333Z,87.33
2023-03-26T05:25:56.308Z,87.16
2023-03-26T05:28:26.809Z,88.17
2023-03-26T05:30:55.554Z,87.78
2023-03-26T05:33:23.937Z,87.21
2023-03-26T05:36:02.263Z,89.86
2023-03-26T05:38:31.381Z,91.86
2023-03-26T05:41:00.736Z,94.22
2023-03-26T05:43:30.462Z,97.27
2023-03-26T05:45:58.497Z,98.09
2023-03-26T05:48:27.028Z,98.24
2023-03-26T05:50:57.369Z,98.36
2023-03-26T05:53:27.590Z,97.82
2023-03-26T05:55:58.034Z,98.44
2023-03-26T05:58:26.372Z,99.79
2023-03-26T06:01:05.766Z,100.00
2023-03-26T06:03:34.422Z,100.00
2023-03-26T06:06:03.935Z,100.00
2023-03-26T06:08:32.222Z,100.00
2023-03-26T06:11:01.157Z,100.00
2023-03-26T06:13:45.002Z,100.00
2023-03-26T06:16:27.733Z,100.00
2023-03-26T06:18:57.116Z,100.00
2023-03-26T06:21:25.756Z,100.00
2023-03-26T06:23:53.668Z,100.00
2023-03-26T06:26:21.795Z,100.00
2023-03-26T06:28:49.737Z,100.00
2023-03-26T06:31:19.600Z,99.01
2023-03-26T06:33:48.839Z,93.62
2023-03-26T06:36:16.946Z,92.45
2023-03-26T06:38:44.901Z,89.74
2023-03-26T06:41:13.145Z,89.92
2023-03-26T06:43:41.008Z,89.93
2023-03-26T06:46:09.006Z,89.58
2023-03-26T06:48:38.349Z,91.80
2023-03-26T06:51:06.864Z,92.54
2023-03-26T06:53:34.716Z,92.02
2023-03-26T06:56:03.351Z,92.63
2023-03-26T06:58:31.792Z,91.74
2023-03-26T07:01:00.622Z,92.21
2023-03-26T07:03:29.835Z,92.38
2023-03-26T07:06:00.106Z,93.15
2023-03-26T07:08:28.119Z,90.68
2023-03-26T07:10:56.279Z,90.62
2023-03-26T07:13:24.375Z,90.03
2023-03-26T07:15:52.342Z,86.82
2023-03-26T07:18:20.515Z,86.60
2023-03-26T07:20:48.911Z,86.59
2023-03-26T07:23:21.346Z,84.72
2023-03-26T07:25:49.907Z,83.36
2023-03-26T07:28:25.595Z,83.06
2023-03-26T07:31:01.902Z,84.70
2023-03-26T07:33:38.405Z,86.59
2023-03-26T07:36:21.903Z,87.76
2023-03-26T07:39:07.350Z,87.66
2023-03-26T07:41:44.394Z,87.92
2023-03-26T07:44:25.888Z,88.19
2023-03-26T07:46:54.758Z,89.94
2023-03-26T07:49:23.484Z,88.13
2023-03-26T07:51:52.049Z,90.99
2023-03-26T07:54:21.905Z,98.28
2023-03-26T07:56:58.685Z,100.00
2023-03-26T07:59:32.274Z,100.00
2023-03-26T08:02:19.071Z,100.00
2023-03-26T08:05:00.955Z,100.00
2023-03-26T08:07:42.478Z,100.00
2023-03-26T08:10:18.895Z,100.00
2023-03-26T08:12:56.320Z,100.00
2023-03-26T08:15:30.733Z,100.00
2023-03-26T08:18:04.394Z,100.00
2023-03-26T08:20:41.608Z,100.00
2023-03-26T08:23:17.109Z,100.00
2023-03-26T08:25:59.428Z,100.00
2023-03-26T08:28:44.638Z,100.00
2023-03-26T08:31:15.459Z,100.00
2023-03-26T08:33:43.777Z,100.00
2023-03-26T08:36:11.803Z,98.72
2023-03-26T08:38:39.769Z,98.97
2023-03-26T08:41:52.009Z,99.93
2023-03-26T08:44:56.580Z,96.08
2023-03-26T08:47:48.139Z,97.47
2023-03-26T08:50:44.436Z,93.71
2023-03-26T08:53:42.899Z,95.40
2023-03-26T08:56:20.716Z,93.83
2023-03-26T08:59:21.785Z,95.30
2023-03-26T09:02:16.121Z,96.18
2023-03-26T09:05:08.192Z,96.85
2023-03-26T09:08:10.718Z,91.88
2023-03-26T09:10:52.003Z,88.31
2023-03-26T09:14:07.269Z,88.62
2023-03-26T09:16:57.801Z,88.96
2023-03-26T09:19:56.463Z,82.25
2023-03-26T09:23:00.647Z,80.73
2023-03-26T09:26:05.799Z,80.62
2023-03-26T09:29:11.310Z,75.61
2023-03-26T09:31:58.308Z,75.27
2023-03-26T09:34:31.822Z,71.06
2023-03-26T09:37:15.843Z,70.71
2023-03-26T09:39:53.189Z,72.48
2023-03-26T09:42:34.874Z,69.43
2023-03-26T09:45:22.735Z,69.44
2023-03-26T09:48:19.864Z,71.55
2023-03-26T09:51:26.699Z,72.27
2023-03-26T09:54:28.910Z,70.82
2023-03-26T09:57:08.351Z,69.67
2023-03-26T10:00:03.295Z,68.55
2023-03-26T10:02:45.647Z,69.42
2023-03-26T10:05:47.602Z,67.69
2023-03-26T10:08:41.418Z,65.77
2023-03-26T10:11:18.622Z,67.53
2023-03-26T10:13:58.022Z,68.46
2023-03-26T10:16:42.021Z,65.07
2023-03-26T10:19:33.006Z,67.62
2023-03-26T10:22:12.703Z,66.50
2023-03-26T10:25:01.447Z,67.41
2023-03-26T10:27:44.688Z,65.39
2023-03-26T10:30:39.075Z,64.64
2023-03-26T10:33:15.137Z,64.74
2023-03-26T10:36:01.184Z,65.48
2023-03-26T10:38:49.538Z,58.78
2023-03-26T10:41:23.875Z,59.04
2023-03-26T10:44:09.280Z,58.75
2023-03-26T10:47:12.822Z,57.49
2023-03-26T10:50:27.367Z,57.25
2023-03-26T10:53:00.812Z,57.94
2023-03-26T10:55:33.008Z,55.08
2023-03-26T10:58:06.335Z,55.44
2023-03-26T11:00:40.493Z,58.89
2023-03-26T11:03:22.789Z,58.98
2023-03-26T11:06:01.062Z,56.40
2023-03-26T11:08:38.489Z,54.56
2023-03-26T11:11:18.832Z,60.05
2023-03-26T11:13:55.443Z,57.21
2023-03-26T11:16:30.729Z,58.88
2023-03-26T11:19:05.710Z,57.66
2023-03-26T11:21:43.142Z,56.48
2023-03-26T11:24:36.175Z,57.36
2023-03-26T11:27:17.020Z,61.92
2023-03-26T11:29:56.885Z,69.75
2023-03-26T11:32:28.473Z,75.28
2023-03-26T11:35:02.449Z,68.39
2023-03-26T11:37:36.012Z,68.75
2023-03-26T11:40:11.581Z,73.86
2023-03-26T11:42:40.634Z,80.97
2023-03-26T11:45:17.759Z,78.44
2023-03-26T11:47:52.025Z,84.26
2023-03-26T11:50:23.703Z,87.69
2023-03-26T11:52:53.105Z,85.49
2023-03-26T11:55:21.242Z,85.05
2023-03-26T11:57:54.895Z,87.60
2023-03-26T12:00:27.613Z,92.60
2023-03-26T12:02:58.938Z,90.58
2023-03-26T12:05:33.549Z,87.13
2023-03-26T12:08:07.846Z,88.01
2023-03-26T12:10:38.678Z,90.69
2023-03-26T12:13:26.727Z,94.20
2023-03-26T12:15:59.576Z,92.31
2023-03-26T12:18:29.547Z,92.38
2023-03-26T12:21:09.373Z,90.44
2023-03-26T12:23:53.015Z,90.18
2023-03-26T12:26:30.381Z,86.68
2023-03-26T12:28:58.534Z,87.11
2023-03-26T12:31:26.683Z,87.67
2023-03-26T12:34:14.919Z,84.71
2023-03-26T12:36:50.498Z,82.16
2023-03-26T12:40:10.741Z,83.15
2023-03-26T12:44:51.503Z,82.20
2023-03-26T12:45:17.514Z,80.59
2023-03-26T12:48:01.102Z,81.63
2023-03-26T12:50:47.579Z,81.96
2023-03-26T12:53:28.404Z,81.82
2023-03-26T12:56:02.364Z,81.39
2023-03-26T12:59:00.232Z,77.81
2023-03-26T13:01:39.912Z,78.63
2023-03-26T13:04:27.004Z,76.83
2023-03-26T13:07:02.168Z,75.55
2023-03-26T13:09:44.272Z,79.13
2023-03-26T13:12:28.107Z,77.71
2023-03-26T13:15:10.330Z,75.74
2023-03-26T13:17:47.930Z,71.94
2023-03-26T13:20:21.511Z,73.49
2023-03-26T13:22:59.695Z,66.74
2023-03-26T13:25:36.545Z,68.12
2023-03-26T13:28:18.530Z,69.89
2023-03-26T13:30:53.552Z,70.83
2023-03-26T13:33:32.657Z,71.72
2023-03-26T13:36:21.753Z,69.32
2023-03-26T13:39:11.373Z,73.55
2023-03-26T13:41:53.111Z,70.75
2023-03-26T13:44:33.407Z,69.78
2023-03-26T13:47:05.751Z,82.63
2023-03-26T13:49:38.702Z,89.79
2023-03-26T13:52:11.614Z,91.44
2023-03-26T13:54:44.932Z,94.58
2023-03-26T13:57:20.224Z,95.12
2023-03-26T13:59:55.689Z,97.54
2023-03-26T14:02:31.872Z,95.20
2023-03-26T14:05:05.144Z,96.36
2023-03-26T14:07:42.613Z,95.39
2023-03-26T14:10:14.250Z,96.43
2023-03-26T14:12:51.540Z,97.93
2023-03-26T14:15:26.669Z,94.81
2023-03-26T14:18:01.292Z,92.35
2023-03-26T14:20:57.600Z,93.87
2023-03-26T14:23:59.802Z,93.55
2023-03-26T14:26:46.364Z,95.61
2023-03-26T14:29:57.160Z,95.15
2023-03-26T14:32:52.861Z,91.75
2023-03-26T14:35:29.417Z,87.81
2023-03-26T14:38:20.334Z,87.42
2023-03-26T14:40:58.837Z,84.96
2023-03-26T14:44:02.421Z,84.33
2023-03-26T14:46:53.183Z,85.65
2023-03-26T14:49:34.446Z,86.49
2023-03-26T14:52:12.062Z,82.14
2023-03-26T14:54:43.939Z,84.20
2023-03-26T14:57:47.969Z,86.10
2023-03-26T15:00:38.967Z,87.60
2023-03-26T15:03:49.833Z,86.76
2023-03-26T15:06:51.411Z,88.81
2023-03-26T15:09:57.830Z,91.89
2023-03-26T15:12:53.073Z,90.99
2023-03-26T15:16:08.751Z,89.61
2023-03-26T15:19:11.844Z,89.76
2023-03-26T15:22:08.081Z,91.72
2023-03-26T15:25:00.361Z,89.85
2023-03-26T15:28:05.313Z,91.88
2023-03-26T15:31:10.958Z,90.67
2023-03-26T15:34:13.848Z,90.17
2023-03-26T15:37:10.725Z,88.78
2023-03-26T15:40:00.067Z,89.31
2023-03-26T15:42:38.507Z,88.52
2023-03-26T15:45:34.591Z,87.72
2023-03-26T15:48:32.106Z,88.88
2023-03-26T15:51:15.441Z,87.59
2023-03-26T15:53:51.892Z,88.36
2023-03-26T15:56:32.934Z,85.35
2023-03-26T15:59:11.956Z,85.11
2023-03-26T16:01:51.933Z,84.46
2023-03-26T16:04:30.615Z,84.99
2023-03-26T16:07:12.140Z,82.58
2023-03-26T16:09:53.165Z,80.12
2023-03-26T16:12:38.241Z,80.23
2023-03-26T16:15:29.811Z,77.57
2023-03-26T16:18:36.073Z,78.05
2023-03-26T16:21:34.439Z,79.51
2023-03-26T16:24:21.979Z,80.57
2023-03-26T16:27:03.515Z,79.75
2023-03-26T16:29:31.894Z,81.48
2023-03-26T16:32:11.874Z,79.31
2023-03-26T16:34:43.676Z,80.10
2023-03-26T16:37:40.867Z,81.54
2023-03-26T16:40:28.639Z,82.96
2023-03-26T16:43:07.473Z,82.72
2023-03-26T16:45:40.882Z,82.87
2023-03-26T16:48:22.720Z,84.97
2023-03-26T16:50:57.809Z,85.21
2023-03-26T16:53:41.762Z,85.10
2023-03-26T16:56:18.127Z,85.17
2023-03-26T16:58:56.379Z,86.62
2023-03-26T17:01:36.242Z,87.24
2023-03-26T17:04:11.872Z,87.33
2023-03-26T17:07:04.897Z,88.52
2023-03-26T17:09:46.613Z,90.29
2023-03-26T17:12:20.885Z,91.91
2023-03-26T17:15:08.469Z,92.45
2023-03-26T17:17:51.589Z,92.35
2023-03-26T17:20:33.482Z,93.22
2023-03-26T17:23:12.846Z,92.48
2023-03-26T17:25:54.695Z,91.26
2023-03-26T17:28:39.813Z,91.59
2023-03-26T17:31:19.547Z,92.45
2023-03-26T17:33:47.982Z,91.84
2023-03-26T17:36:33.231Z,92.83
2023-03-26T17:39:20.730Z,93.37
2023-03-26T17:41:57.307Z,92.14
2023-03-26T17:44:38.829Z,91.40
2023-03-26T17:47:19.211Z,94.26
2023-03-26T17:49:51.378Z,94.62
2023-03-26T17:52:25.422Z,92.62
2023-03-26T17:54:57.453Z,95.71
2023-03-26T17:57:33.505Z,98.93
2023-03-26T18:00:03.726Z,100.00
2023-03-26T18:02:39.761Z,100.00
2023-03-26T18:05:12.461Z,100.00
2023-03-26T18:08:15.657Z,100.00
2023-03-26T18:11:02.775Z,100.00
2023-03-26T18:14:06.213Z,100.00
2023-03-26T18:16:40.090Z,100.00
2023-03-26T18:19:18.407Z,100.00
2023-03-26T18:21:50.318Z,100.00
2023-03-26T18:24:22.497Z,100.00
2023-03-26T18:26:56.676Z,100.00
2023-03-26T18:29:26.712Z,100.00
2023-03-26T18:32:00.442Z,100.00
2023-03-26T18:34:32.103Z,100.00
2023-03-26T18:37:15.007Z,100.00
2023-03-26T18:39:43.626Z,100.00
2023-03-26T18:42:22.863Z,100.00
2023-03-26T18:44:53.412Z,100.00
2023-03-26T18:47:24.173Z,99.67
2023-03-26T18:49:58.184Z,99.25
2023-03-26T18:52:29.401Z,99.16
2023-03-26T18:54:59.178Z,98.38
2023-03-26T18:57:29.870Z,99.93
2023-03-26T19:00:15.693Z,96.97
2023-03-26T19:02:46.268Z,98.90
2023-03-26T19:05:16.781Z,99.02
2023-03-26T19:07:47.270Z,99.94
2023-03-26T19:10:22.179Z,100.00
2023-03-26T19:12:56.532Z,100.00
2023-03-26T19:15:26.155Z,100.00
2023-03-26T19:18:03.887Z,100.00
2023-03-26T19:20:39.035Z,100.00
2023-03-26T19:23:09.092Z,100.00
2023-03-26T19:25:41.253Z,100.00
2023-03-26T19:28:18.284Z,100.00
2023-03-26T19:30:46.249Z,100.00
2023-03-26T19:33:18.949Z,100.00
2023-03-26T19:35:52.586Z,100.00
2023-03-26T19:38:24.476Z,100.00
2023-03-26T19:40:54.191Z,100.00
2023-03-26T19:43:23.203Z,100.00
2023-03-26T19:46:00.581Z,100.00
2023-03-26T19:48:46.839Z,100.00
2023-03-26T19:51:21.113Z,100.00
2023-03-26T19:53:50.322Z,100.00
2023-03-26T19:56:20.859Z,100.00
2023-03-26T19:58:50.154Z,100.00
2023-03-26T20:01:20.979Z,100.00
2023-03-26T20:03:53.055Z,100.00
2023-03-26T20:06:34.022Z,100.00
2023-03-26T20:09:06.260Z,100.00
2023-03-26T20:11:38.074Z,100.00
2023-03-26T20:14:13.747Z,100.00
2023-03-26T20:16:43.851Z,100.00
2023-03-26T20:19:15.229Z,100.00
2023-03-26T20:21:44.374Z,100.00
2023-03-26T20:24:15.808Z,100.00
2023-03-26T20:26:44.838Z,100.00
2023-03-26T20:29:13.360Z,100.00
2023-03-26T20:31:42.553Z,100.00
2023-03-26T20:34:18.666Z,100.00
2023-03-26T20:36:47.189Z,100.00
2023-03-26T20:39:15.564Z,100.00
2023-03-26T20:41:46.766Z,100.00
2023-03-26T20:44:17.066Z,100.00
2023-03-26T20:46:46.711Z,100.00
2023-03-26T20:49:15.201Z,100.00
2023-03-26T20:51:45.404Z,100.00
2023-03-26T20:54:17.800Z,100.00
2023-03-26T20:56:47.884Z,100.00
2023-03-26T20:59:22.280Z,100.00
2023-03-26T21:01:51.280Z,100.00
2023-03-26T21:04:20.256Z,100.00
2023-03-26T21:06:50.128Z,100.00
2023-03-26T21:09:23.776Z,100.00
2023-03-26T21:12:00.523Z,100.00
2023-03-26T21:14:33.438Z,100.00
2023-03-26T21:17:02.422Z,100.00
2023-03-26T21:19:30.888Z,100.00
2023-03-26T21:22:10.274Z,100.00
2023-03-26T21:25:04.388Z,100.00
2023-03-26T21:27:40.489Z,100.00
2023-03-26T21:30:14.327Z,100.00
2023-03-26T21:32:42.544Z,100.00
2023-03-26T21:35:13.381Z,100.00
2023-03-26T21:37:44.180Z,100.00
2023-03-26T21:40:14.716Z,100.00
2023-03-26T21:42:43.327Z,100.00
2023-03-26T21:45:12.943Z,100.00
2023-03-26T21:47:41.771Z,100.00
2023-03-26T21:50:12.819Z,100.00
2023-03-26T21:52:51.013Z,100.00
2023-03-26T21:55:20.638Z,100.00
2023-03-26T21:58:12.655Z,100.00
2023-03-26T22:00:46.962Z,100.00
2023-03-26T22:03:24.393Z,100.00
2023-03-26T22:06:00.664Z,100.00
2023-03-26T22:08:33.959Z,100.00
2023-03-26T22:11:02.097Z,100.00
2023-03-26T22:13:31.070Z,100.00
2023-03-26T22:15:59.482Z,100.00
2023-03-26T22:18:30.360Z,100.00
2023-03-26T22:20:59.244Z,100.00
2023-03-26T22:23:27.328Z,100.00
2023-03-26T22:25:57.806Z,100.00
2023-03-26T22:28:25.850Z,100.00
2023-03-26T22:30:53.895Z,100.00
2023-03-26T22:33:21.963Z,100.00
2023-03-26T22:35:49.867Z,100.00
2023-03-26T22:38:18.030Z,100.00
2023-03-26T22:40:45.918Z,100.00
2023-03-26T22:43:15.241Z,100.00
2023-03-26T22:45:50.380Z,100.00
2023-03-26T22:48:18.458Z,100.00
2023-03-26T22:50:46.378Z,100.00
2023-03-26T22:53:14.324Z,100.00
2023-03-26T22:55:42.217Z,100.00
2023-03-26T22:58:10.112Z,100.00
2023-03-26T23:00:40.028Z,100.00
2023-03-26T23:03:08.424Z,100.00
2023-03-26T23:05:36.366Z,100.00
2023-03-26T23:08:04.717Z,100.00
2023-03-26T23:10:32.560Z,100.00
2023-03-26T23:13:00.643Z,100.00
2023-03-26T23:15:28.581Z,100.00
2023-03-26T23:17:58.928Z,100.00
2023-03-26T23:20:27.644Z,100.00
2023-03-26T23:22:55.909Z,100.00
2023-03-26T23:25:23.764Z,100.00
2023-03-26T23:27:53.785Z,100.00
2023-03-26T23:30:21.729Z,100.00
2023-03-26T23:32:49.660Z,100.00
2023-03-26T23:35:18.982Z,100.00
2023-03-26T23:37:47.168Z,100.00
2023-03-26T23:40:15.643Z,100.00
2023-03-26T23:42:43.642Z,100.00
2023-03-26T23:45:13.091Z,100.00
2023-03-26T23:47:42.659Z,100.00
2023-03-26T23:50:12.576Z,100.00
2023-03-26T23:52:41.873Z,100.00
2023-03-26T23:55:10.354Z,100.00
2023-03-26T23:57:38.298Z,100.00
